createdAt,value
2023-03-20T00:00:13.544Z,59.15
2023-03-20T00:01:56.662Z,58.85
2023-03-20T00:03:21.076Z,58.78
2023-03-20T00:04:54.829Z,58.81
2023-03-20T00:06:41.879Z,58.78
2023-03-20T00:08:15.742Z,58.94
2023-03-20T00:09:49.366Z,58.63
2023-03-20T00:11:13.841Z,58.64
2023-03-20T00:12:38.340Z,58.56
2023-03-20T00:14:13.751Z,58.95
2023-03-20T00:15:36.624Z,58.82
2023-03-20T00:17:06.420Z,58.78
2023-03-20T00:18:41.800Z,58.88
2023-03-20T00:20:03.889Z,58.54
2023-03-20T00:21:47.990Z,59.03
2023-03-20T00:23:12.121Z,59.14
2023-03-20T00:24:57.134Z,58.88
2023-03-20T00:26:30.541Z,58.90
2023-03-20T00:28:04.526Z,59.05
2023-03-20T00:29:41.105Z,59.49
2023-03-20T00:31:17.470Z,59.28
2023-03-20T00:32:41.850Z,59.59
2023-03-20T00:34:13.126Z,59.18
2023-03-20T00:35:49.082Z,59.00
2023-03-20T00:37:17.936Z,59.20
2023-03-20T00:39:04.295Z,59.25
2023-03-20T00:40:29.387Z,59.44
2023-03-20T00:42:14.754Z,60.02
2023-03-20T00:43:37.765Z,59.75
2023-03-20T00:45:22.732Z,59.85
2023-03-20T00:46:47.521Z,59.75
2023-03-20T00:48:28.738Z,60.02
2023-03-20T00:49:51.088Z,60.37
2023-03-20T00:51:26.737Z,60.63
2023-03-20T00:52:48.752Z,60.34
2023-03-20T00:54:33.925Z,60.35
2023-03-20T00:55:58.265Z,60.71
2023-03-20T00:57:43.276Z,60.43
2023-03-20T00:59:07.310Z,60.87
2023-03-20T01:00:43.139Z,60.76
2023-03-20T01:02:28.807Z,60.83
2023-03-20T01:03:52.922Z,60.95
2023-03-20T01:05:16.920Z,61.07
2023-03-20T01:06:40.209Z,61.09
2023-03-20T01:08:02.049Z,61.22
2023-03-20T01:09:37.669Z,61.44
2023-03-20T01:11:01.365Z,61.48
2023-03-20T01:12:48.167Z,61.62
2023-03-20T01:14:21.433Z,61.87
2023-03-20T01:15:45.576Z,62.27
2023-03-20T01:17:18.940Z,62.94
2023-03-20T01:19:00.456Z,62.23
2023-03-20T01:20:41.796Z,57.92
2023-03-20T01:22:10.512Z,54.39
2023-03-20T01:23:44.000Z,53.68
2023-03-20T01:25:17.331Z,54.26
2023-03-20T01:27:05.667Z,55.12
2023-03-20T01:28:39.293Z,55.63
2023-03-20T01:30:04.159Z,56.69
2023-03-20T01:31:26.256Z,57.07
2023-03-20T01:32:59.551Z,57.62
2023-03-20T01:34:26.742Z,58.34
2023-03-20T01:35:50.876Z,58.56
2023-03-20T01:37:19.776Z,58.75
2023-03-20T01:39:05.006Z,59.35
2023-03-20T01:40:50.390Z,59.69
2023-03-20T01:42:12.287Z,60.01
2023-03-20T01:43:47.856Z,60.20
2023-03-20T01:45:12.477Z,60.46
2023-03-20T01:46:36.951Z,60.75
2023-03-20T01:48:08.325Z,60.93
2023-03-20T01:49:34.232Z,60.90
2023-03-20T01:51:10.437Z,61.03
2023-03-20T01:52:32.191Z,61.52
2023-03-20T01:53:54.760Z,61.34
2023-03-20T01:55:28.557Z,62.04
2023-03-20T01:57:15.886Z,62.19
2023-03-20T01:58:39.916Z,62.47
2023-03-20T02:00:01.691Z,63.49
2023-03-20T02:01:35.855Z,62.53
2023-03-20T02:03:09.632Z,58.84
2023-03-20T02:05:08.112Z,54.26
2023-03-20T02:06:45.304Z,53.99
2023-03-20T02:08:23.144Z,54.77
2023-03-20T02:09:57.440Z,55.51
2023-03-20T02:11:45.142Z,56.52
2023-03-20T02:13:18.592Z,57.14
2023-03-20T02:14:53.471Z,57.98
2023-03-20T02:16:59.929Z,58.70
2023-03-20T02:18:52.012Z,59.20
2023-03-20T02:20:27.741Z,59.66
2023-03-20T02:22:01.233Z,60.33
2023-03-20T02:23:34.446Z,60.76
2023-03-20T02:25:19.147Z,60.90
2023-03-20T02:27:01.413Z,60.93
2023-03-20T02:28:30.525Z,61.19
2023-03-20T02:30:16.285Z,61.44
2023-03-20T02:32:08.739Z,61.98
2023-03-20T02:33:44.853Z,62.21
2023-03-20T02:35:25.860Z,62.39
2023-03-20T02:36:59.322Z,62.95
2023-03-20T02:38:40.327Z,63.47
2023-03-20T02:40:16.276Z,59.95
2023-03-20T02:41:54.621Z,56.02
2023-03-20T02:43:28.161Z,53.84
2023-03-20T02:45:09.464Z,54.08
2023-03-20T02:46:52.897Z,55.00
2023-03-20T02:48:36.711Z,56.24
2023-03-20T02:50:13.311Z,56.92
2023-03-20T02:51:51.242Z,57.29
2023-03-20T02:53:24.515Z,57.74
2023-03-20T02:55:09.962Z,58.09
2023-03-20T02:56:50.629Z,58.54
2023-03-20T02:58:40.201Z,58.76
2023-03-20T03:00:25.459Z,59.32
2023-03-20T03:02:01.156Z,59.86
2023-03-20T03:03:34.698Z,59.75
2023-03-20T03:05:15.597Z,60.02
2023-03-20T03:07:07.715Z,60.46
2023-03-20T03:08:54.043Z,60.61
2023-03-20T03:10:29.796Z,61.07
2023-03-20T03:12:05.287Z,61.01
2023-03-20T03:13:36.901Z,61.56
2023-03-20T03:15:22.051Z,61.80
2023-03-20T03:17:12.273Z,61.85
2023-03-20T03:18:54.416Z,62.02
2023-03-20T03:20:39.517Z,62.24
2023-03-20T03:22:24.328Z,63.05
2023-03-20T03:23:48.759Z,61.62
2023-03-20T03:25:29.918Z,57.74
2023-03-20T03:27:15.362Z,54.14
2023-03-20T03:29:09.917Z,53.81
2023-03-20T03:31:04.966Z,54.61
2023-03-20T03:32:39.055Z,55.83
2023-03-20T03:34:14.855Z,56.72
2023-03-20T03:36:00.487Z,57.65
2023-03-20T03:37:41.556Z,58.32
2023-03-20T03:39:22.329Z,58.70
2023-03-20T03:41:15.697Z,59.30
2023-03-20T03:43:00.774Z,59.92
2023-03-20T03:44:26.864Z,60.60
2023-03-20T03:46:11.525Z,61.03
2023-03-20T03:48:02.744Z,61.43
2023-03-20T03:49:37.148Z,61.74
2023-03-20T03:51:19.911Z,62.33
2023-03-20T03:53:14.656Z,63.52
2023-03-20T03:55:09.959Z,61.17
2023-03-20T03:56:34.074Z,56.50
2023-03-20T03:58:09.925Z,53.88
2023-03-20T03:59:55.568Z,54.11
2023-03-20T04:01:43.486Z,55.31
2023-03-20T04:03:28.458Z,56.40
2023-03-20T04:04:50.483Z,57.42
2023-03-20T04:06:24.275Z,58.23
2023-03-20T04:08:00.766Z,58.89
2023-03-20T04:09:47.469Z,59.91
2023-03-20T04:11:37.292Z,60.42
2023-03-20T04:13:13.998Z,61.29
2023-03-20T04:15:03.003Z,61.52
2023-03-20T04:16:57.312Z,62.00
2023-03-20T04:18:51.904Z,62.38
2023-03-20T04:20:25.179Z,62.65
2023-03-20T04:22:02.648Z,63.27
2023-03-20T04:23:56.920Z,59.37
2023-03-20T04:25:33.935Z,54.95
2023-03-20T04:27:17.948Z,54.13
2023-03-20T04:28:42.079Z,54.75
2023-03-20T04:30:34.800Z,55.53
2023-03-20T04:32:35.934Z,57.08
2023-03-20T04:34:11.282Z,58.03
2023-03-20T04:35:55.743Z,58.27
2023-03-20T04:37:40.649Z,59.03
2023-03-20T04:39:25.965Z,60.05
2023-03-20T04:40:58.289Z,60.26
2023-03-20T04:42:20.321Z,60.15
2023-03-20T04:43:53.347Z,60.30
2023-03-20T04:45:22.412Z,60.53
2023-03-20T04:47:08.007Z,61.01
2023-03-20T04:49:02.992Z,61.29
2023-03-20T04:50:57.916Z,61.62
2023-03-20T04:52:38.756Z,62.06
2023-03-20T04:54:12.429Z,62.03
2023-03-20T04:55:48.796Z,62.19
2023-03-20T04:57:34.575Z,62.44
2023-03-20T04:59:20.171Z,62.78
2023-03-20T05:00:42.259Z,62.43
2023-03-20T05:02:15.807Z,59.60
2023-03-20T05:04:01.432Z,54.87
2023-03-20T05:05:42.098Z,53.67
2023-03-20T05:07:28.793Z,54.18
2023-03-20T05:09:20.579Z,55.35
2023-03-20T05:10:57.165Z,56.41
2023-03-20T05:12:49.975Z,57.61
2023-03-20T05:15:01.693Z,58.40
2023-03-20T05:16:50.015Z,58.27
2023-03-20T05:18:58.913Z,58.96
2023-03-20T05:21:00.920Z,59.71
2023-03-20T05:22:45.608Z,59.88
2023-03-20T05:24:39.915Z,60.33
2023-03-20T05:26:37.191Z,60.53
2023-03-20T05:28:38.835Z,60.72
2023-03-20T05:30:20.677Z,61.21
2023-03-20T05:32:05.622Z,61.21
2023-03-20T05:34:06.399Z,62.29
2023-03-20T05:36:37.921Z,60.36
2023-03-20T05:38:50.816Z,54.43
2023-03-20T05:40:50.486Z,53.63
2023-03-20T05:43:20.745Z,54.60
2023-03-20T05:45:18.289Z,55.66
2023-03-20T05:47:14.782Z,56.47
2023-03-20T05:49:01.659Z,57.33
2023-03-20T05:50:43.626Z,57.91
2023-03-20T05:52:44.242Z,58.63
2023-03-20T05:54:16.552Z,59.08
2023-03-20T05:56:31.056Z,59.43
2023-03-20T05:58:24.790Z,59.82
2023-03-20T06:00:46.266Z,60.57
2023-03-20T06:03:10.101Z,60.86
2023-03-20T06:05:03.805Z,60.96
2023-03-20T06:06:53.465Z,61.32
2023-03-20T06:08:39.831Z,61.58
2023-03-20T06:10:14.867Z,61.78
2023-03-20T06:11:48.424Z,62.06
2023-03-20T06:13:15.019Z,62.30
2023-03-20T06:15:09.900Z,62.50
2023-03-20T06:17:12.926Z,62.86
2023-03-20T06:19:06.626Z,59.15
2023-03-20T06:21:00.812Z,54.55
2023-03-20T06:22:46.310Z,53.80
2023-03-20T06:24:42.918Z,54.68
2023-03-20T06:26:36.500Z,55.68
2023-03-20T06:28:14.100Z,56.76
2023-03-20T06:30:02.181Z,57.24
2023-03-20T06:31:56.475Z,57.85
2023-03-20T06:33:45.629Z,58.38
2023-03-20T06:35:32.832Z,59.03
2023-03-20T06:37:17.762Z,59.19
2023-03-20T06:39:03.161Z,59.83
2023-03-20T06:40:51.584Z,60.01
2023-03-20T06:42:37.305Z,60.12
2023-03-20T06:44:14.811Z,60.26
2023-03-20T06:46:53.925Z,60.59
2023-03-20T06:48:28.425Z,60.97
2023-03-20T06:50:04.060Z,60.84
2023-03-20T06:51:58.902Z,60.68
2023-03-20T06:53:47.626Z,60.48
2023-03-20T06:55:14.886Z,60.59
2023-03-20T06:56:48.810Z,60.61
2023-03-20T06:58:24.592Z,60.63
2023-03-20T07:02:16.573Z,60.85
2023-03-20T07:03:50.909Z,61.03
2023-03-20T07:05:36.403Z,61.26
2023-03-20T07:07:23.521Z,61.05
2023-03-20T07:09:09.785Z,60.63
2023-03-20T07:10:32.106Z,60.40
2023-03-20T07:12:20.295Z,59.84
2023-03-20T07:13:56.519Z,59.69
2023-03-20T07:16:04.078Z,59.53
2023-03-20T07:17:50.933Z,59.20
2023-03-20T07:19:25.153Z,59.27
2023-03-20T07:21:02.262Z,58.99
2023-03-20T07:22:49.101Z,58.57
2023-03-20T07:24:47.852Z,58.18
2023-03-20T07:26:34.013Z,58.14
2023-03-20T07:28:19.805Z,58.11
2023-03-20T07:30:17.289Z,57.80
2023-03-20T07:32:02.844Z,57.69
2023-03-20T07:34:00.866Z,57.25
2023-03-20T07:35:57.913Z,56.85
2023-03-20T07:37:31.902Z,56.55
2023-03-20T07:39:08.182Z,56.39
2023-03-20T07:40:55.257Z,56.22
2023-03-20T07:42:40.921Z,55.93
2023-03-20T07:44:39.195Z,55.83
2023-03-20T07:46:38.891Z,55.62
2023-03-20T07:48:25.122Z,55.48
2023-03-20T07:50:12.620Z,55.52
2023-03-20T07:51:48.760Z,55.53
2023-03-20T07:53:35.206Z,55.63
2023-03-20T07:55:21.887Z,55.56
2023-03-20T07:56:55.666Z,55.38
2023-03-20T07:58:50.904Z,55.35
2023-03-20T08:00:40.897Z,55.39
2023-03-20T08:02:35.955Z,55.59
2023-03-20T08:04:22.659Z,55.47
2023-03-20T08:06:08.407Z,55.09
2023-03-20T08:07:53.775Z,54.90
2023-03-20T08:09:49.905Z,54.96
2023-03-20T08:11:35.294Z,55.25
2023-03-20T08:13:20.699Z,54.97
2023-03-20T08:15:05.656Z,54.73
2023-03-20T08:17:06.141Z,54.58
2023-03-20T08:19:04.430Z,54.67
2023-03-20T08:20:50.197Z,54.30
2023-03-20T08:22:36.004Z,53.96
2023-03-20T08:24:09.041Z,53.73
2023-03-20T08:25:54.707Z,53.42
2023-03-20T08:27:39.831Z,53.22
2023-03-20T08:29:25.044Z,53.10
2023-03-20T08:31:18.983Z,53.01
2023-03-20T08:33:12.242Z,51.92
2023-03-20T08:34:58.039Z,51.59
2023-03-20T08:36:44.722Z,51.69
2023-03-20T08:38:19.953Z,51.59
2023-03-20T08:39:56.659Z,51.11
2023-03-20T08:41:46.034Z,51.19
2023-03-20T08:43:40.924Z,50.62
2023-03-20T08:45:27.598Z,50.23
2023-03-20T08:47:14.387Z,50.51
2023-03-20T08:49:09.904Z,50.02
2023-03-20T08:50:51.851Z,49.67
2023-03-20T08:52:37.454Z,49.88
2023-03-20T08:54:23.102Z,49.51
2023-03-20T08:56:00.110Z,49.14
2023-03-20T08:57:53.503Z,49.02
2023-03-20T08:59:26.957Z,49.04
2023-03-20T09:01:09.995Z,48.96
2023-03-20T09:03:04.284Z,49.10
2023-03-20T09:04:38.302Z,49.41
2023-03-20T09:06:13.289Z,49.82
2023-03-20T09:07:58.599Z,50.19
2023-03-20T09:09:33.347Z,50.56
2023-03-20T09:11:20.997Z,50.32
2023-03-20T09:13:23.737Z,50.41
2023-03-20T09:15:11.499Z,50.63
2023-03-20T09:16:56.764Z,51.02
2023-03-20T09:18:33.638Z,51.22
2023-03-20T09:20:18.728Z,51.48
2023-03-20T09:21:59.971Z,51.59
2023-03-20T09:23:48.744Z,51.65
2023-03-20T09:25:23.114Z,51.68
2023-03-20T09:27:16.915Z,51.70
2023-03-20T09:28:59.911Z,51.92
2023-03-20T09:30:53.614Z,52.04
2023-03-20T09:32:47.194Z,52.16
2023-03-20T09:34:32.082Z,52.59
2023-03-20T09:36:17.650Z,52.94
2023-03-20T09:38:07.395Z,53.10
2023-03-20T09:39:41.318Z,53.32
2023-03-20T09:41:10.321Z,53.46
2023-03-20T09:42:56.679Z,53.59
2023-03-20T09:44:21.001Z,53.87
2023-03-20T09:45:57.307Z,53.63
2023-03-20T09:47:43.062Z,53.54
2023-03-20T09:49:28.284Z,54.06
2023-03-20T09:51:10.908Z,53.81
2023-03-20T09:53:04.992Z,53.94
2023-03-20T09:54:54.190Z,53.88
2023-03-20T09:56:48.901Z,53.74
2023-03-20T09:58:25.255Z,53.97
2023-03-20T10:00:19.927Z,53.77
2023-03-20T10:02:06.271Z,53.85
2023-03-20T10:03:52.344Z,53.74
2023-03-20T10:05:38.335Z,53.75
2023-03-20T10:07:13.268Z,54.05
2023-03-20T10:08:47.035Z,53.94
2023-03-20T10:10:20.763Z,53.85
2023-03-20T10:12:07.874Z,53.92
2023-03-20T10:14:02.920Z,54.22
2023-03-20T10:15:56.981Z,54.70
2023-03-20T10:17:43.048Z,54.54
2023-03-20T10:19:09.483Z,54.92
2023-03-20T10:20:59.902Z,55.40
2023-03-20T10:22:34.848Z,55.54
2023-03-20T10:24:11.539Z,55.84
2023-03-20T10:25:57.793Z,56.12
2023-03-20T10:27:42.080Z,56.35
2023-03-20T10:29:23.350Z,56.59
2023-03-20T10:30:57.312Z,56.67
2023-03-20T10:32:29.005Z,57.00
2023-03-20T10:33:53.722Z,57.31
2023-03-20T10:35:23.020Z,57.38
2023-03-20T10:37:08.451Z,57.66
2023-03-20T10:38:30.520Z,57.83
2023-03-20T10:40:05.580Z,57.75
2023-03-20T10:41:39.350Z,58.09
2023-03-20T10:43:12.401Z,58.30
2023-03-20T10:44:41.898Z,58.16
2023-03-20T10:46:08.222Z,58.22
2023-03-20T10:47:42.667Z,58.20
2023-03-20T10:49:08.890Z,58.30
2023-03-20T10:50:30.943Z,58.27
2023-03-20T10:51:53.407Z,58.53
2023-03-20T10:53:22.384Z,58.57
2023-03-20T10:54:55.738Z,58.82
2023-03-20T10:56:29.665Z,58.68
2023-03-20T10:58:05.484Z,58.89
2023-03-20T10:59:27.871Z,59.31
2023-03-20T11:01:07.176Z,59.53
2023-03-20T11:02:41.159Z,59.81
2023-03-20T11:04:10.141Z,60.14
2023-03-20T11:06:08.501Z,60.19
2023-03-20T11:08:03.910Z,60.27
2023-03-20T11:09:30.341Z,60.53
2023-03-20T11:11:03.663Z,60.68
2023-03-20T11:12:40.365Z,61.02
2023-03-20T11:14:26.061Z,61.63
2023-03-20T11:16:11.017Z,63.02
2023-03-20T11:17:52.240Z,63.41
2023-03-20T11:19:21.353Z,61.16
2023-03-20T11:20:54.743Z,57.28
2023-03-20T11:22:19.305Z,55.11
2023-03-20T11:25:52.669Z,56.29
2023-03-20T11:27:16.603Z,57.09
2023-03-20T11:28:52.675Z,57.51
2023-03-20T11:30:26.270Z,58.40
2023-03-20T11:31:59.947Z,58.36
2023-03-20T11:33:24.056Z,58.62
2023-03-20T11:35:06.068Z,59.19
2023-03-20T11:36:30.270Z,59.39
2023-03-20T11:38:06.001Z,59.63
2023-03-20T11:39:48.194Z,60.03
2023-03-20T11:41:21.631Z,60.37
2023-03-20T11:42:48.389Z,60.64
2023-03-20T11:44:14.788Z,60.84
2023-03-20T11:45:58.856Z,61.06
2023-03-20T11:47:33.289Z,61.28
2023-03-20T11:49:06.528Z,61.70
2023-03-20T11:50:28.777Z,62.01
2023-03-20T11:52:03.907Z,62.14
2023-03-20T11:53:37.778Z,62.07
2023-03-20T11:55:13.403Z,62.23
2023-03-20T11:56:58.959Z,62.79
2023-03-20T11:58:32.641Z,61.85
2023-03-20T12:00:13.276Z,58.28
2023-03-20T12:01:56.441Z,54.82
2023-03-20T12:03:18.244Z,54.75
2023-03-20T12:04:43.969Z,55.48
2023-03-20T12:06:17.734Z,56.47
2023-03-20T12:08:00.293Z,57.37
2023-03-20T12:09:29.880Z,58.23
2023-03-20T12:11:03.682Z,59.35
2023-03-20T12:12:57.356Z,59.97
2023-03-20T12:14:43.539Z,60.57
2023-03-20T12:16:17.306Z,60.93
2023-03-20T12:17:51.317Z,60.92
2023-03-20T12:19:45.903Z,61.46
2023-03-20T12:21:17.460Z,61.68
2023-03-20T12:22:59.305Z,62.02
2023-03-20T12:24:41.718Z,62.32
2023-03-20T12:26:14.826Z,63.72
2023-03-20T12:27:56.917Z,61.42
2023-03-20T12:29:32.932Z,56.59
2023-03-20T12:31:08.681Z,54.36
2023-03-20T12:32:45.298Z,54.50
2023-03-20T12:34:16.400Z,55.05
2023-03-20T12:35:50.365Z,56.00
2023-03-20T12:37:43.655Z,57.03
2023-03-20T12:39:29.470Z,57.79
2023-03-20T12:41:03.248Z,58.22
2023-03-20T12:42:27.510Z,58.53
2023-03-20T12:44:12.913Z,59.10
2023-03-20T12:45:46.873Z,59.38
2023-03-20T12:47:08.579Z,59.47
2023-03-20T12:48:33.262Z,59.49
2023-03-20T12:49:55.911Z,59.81
2023-03-20T12:51:41.072Z,60.11
2023-03-20T12:53:04.614Z,60.27
2023-03-20T12:54:26.486Z,60.50
2023-03-20T12:56:02.541Z,60.48
2023-03-20T12:57:36.241Z,60.52
2023-03-20T12:59:18.900Z,60.66
2023-03-20T13:00:52.372Z,60.48
2023-03-20T13:02:26.082Z,60.33
2023-03-20T13:04:00.047Z,60.12
2023-03-20T13:05:24.040Z,60.18
2023-03-20T13:06:59.489Z,60.24
2023-03-20T13:08:31.191Z,59.98
2023-03-20T13:09:53.243Z,60.06
2023-03-20T13:11:26.853Z,60.09
2023-03-20T13:12:56.141Z,60.14
2023-03-20T13:14:20.440Z,60.03
2023-03-20T13:15:44.841Z,60.06
2023-03-20T13:17:08.491Z,60.03
2023-03-20T13:18:44.409Z,59.93
2023-03-20T13:20:07.994Z,60.21
2023-03-20T13:21:41.682Z,60.28
2023-03-20T13:23:26.973Z,60.07
2023-03-20T13:25:09.902Z,59.72
2023-03-20T13:27:03.922Z,59.61
2023-03-20T13:28:40.234Z,59.85
2023-03-20T13:30:24.973Z,59.80
2023-03-20T13:31:47.641Z,59.94
2023-03-20T13:33:20.895Z,60.05
2023-03-20T13:34:54.566Z,60.33
2023-03-20T13:36:30.937Z,60.43
2023-03-20T13:38:04.902Z,60.66
2023-03-20T13:39:50.911Z,60.86
2023-03-20T13:41:26.537Z,61.06
2023-03-20T13:42:50.942Z,61.23
2023-03-20T13:44:15.187Z,61.34
2023-03-20T13:45:48.914Z,61.43
2023-03-20T13:47:22.627Z,61.43
2023-03-20T13:49:03.813Z,61.48
2023-03-20T13:50:25.706Z,61.34
2023-03-20T13:51:47.544Z,61.31
2023-03-20T13:53:11.624Z,61.30
2023-03-20T13:54:45.287Z,61.42
2023-03-20T13:56:09.026Z,61.59
2023-03-20T13:57:38.586Z,61.88
2023-03-20T13:59:01.121Z,62.19
2023-03-20T14:00:34.586Z,62.37
2023-03-20T14:01:56.856Z,62.86
2023-03-20T14:03:30.928Z,61.59
2023-03-20T14:04:53.224Z,58.18
2023-03-20T14:06:47.920Z,54.86
2023-03-20T14:08:11.890Z,54.28
2023-03-20T14:09:57.337Z,54.65
2023-03-20T14:11:32.937Z,55.27
2023-03-20T14:13:08.524Z,56.04
2023-03-20T14:14:44.921Z,56.85
2023-03-20T14:16:07.072Z,57.43
2023-03-20T14:17:40.764Z,58.04
2023-03-20T14:19:25.862Z,58.53
2023-03-20T14:21:20.021Z,59.14
2023-03-20T14:22:49.332Z,59.68
2023-03-20T14:24:20.452Z,60.08
2023-03-20T14:26:01.630Z,60.47
2023-03-20T14:27:45.163Z,60.79
2023-03-20T14:29:31.339Z,61.15
2023-03-20T14:31:07.076Z,61.37
2023-03-20T14:32:31.655Z,61.76
2023-03-20T14:34:12.243Z,62.13
2023-03-20T14:35:47.761Z,62.29
2023-03-20T14:37:20.188Z,62.22
2023-03-20T14:38:54.888Z,62.34
2023-03-20T14:40:28.428Z,62.67
2023-03-20T14:41:50.329Z,63.07
2023-03-20T14:43:25.745Z,61.21
2023-03-20T14:44:48.124Z,57.23
2023-03-20T14:46:33.029Z,54.72
2023-03-20T14:48:06.599Z,54.64
2023-03-20T14:50:00.588Z,55.46
2023-03-20T14:51:34.332Z,56.58
2023-03-20T14:53:16.942Z,57.15
2023-03-20T14:54:39.131Z,58.08
2023-03-20T14:56:02.090Z,58.60
2023-03-20T14:57:35.728Z,59.25
2023-03-20T14:59:24.667Z,59.94
2023-03-20T15:00:46.303Z,60.51
2023-03-20T15:02:22.663Z,61.21
2023-03-20T15:03:44.582Z,62.00
2023-03-20T15:05:17.994Z,62.71
2023-03-20T15:06:44.534Z,63.32
2023-03-20T15:08:06.204Z,61.87
2023-03-20T15:09:43.298Z,58.94
2023-03-20T15:11:05.084Z,56.34
2023-03-20T15:12:39.068Z,55.98
2023-03-20T15:14:03.132Z,56.89
2023-03-20T15:15:52.927Z,58.17
2023-03-20T15:17:46.841Z,59.62
2023-03-20T15:19:31.930Z,61.14
2023-03-20T15:21:14.439Z,61.90
2023-03-20T15:22:49.196Z,62.49
2023-03-20T15:24:23.515Z,64.03
2023-03-20T15:25:48.705Z,62.85
2023-03-20T15:27:13.409Z,60.13
2023-03-20T15:28:58.838Z,56.87
2023-03-20T15:30:32.874Z,55.91
2023-03-20T15:32:14.436Z,56.73
2023-03-20T15:33:48.217Z,58.05
2023-03-20T15:35:21.235Z,59.54
2023-03-20T15:36:43.089Z,60.68
2023-03-20T15:38:05.323Z,61.54
2023-03-20T15:39:39.736Z,62.57
2023-03-20T15:41:15.416Z,64.05
2023-03-20T15:42:38.060Z,62.52
2023-03-20T15:44:06.758Z,60.00
2023-03-20T15:45:42.994Z,56.74
2023-03-20T15:47:23.479Z,55.92
2023-03-20T15:49:08.376Z,56.75
2023-03-20T15:50:54.976Z,58.45
2023-03-20T15:52:28.726Z,59.56
2023-03-20T15:54:14.279Z,60.66
2023-03-20T15:55:38.454Z,61.82
2023-03-20T15:57:02.591Z,62.76
2023-03-20T15:58:36.059Z,63.63
2023-03-20T16:00:06.062Z,61.98
2023-03-20T16:01:28.999Z,59.26
2023-03-20T16:02:51.022Z,56.67
2023-03-20T16:04:45.942Z,56.21
2023-03-20T16:06:17.853Z,57.51
2023-03-20T16:07:51.526Z,58.91
2023-03-20T16:09:15.367Z,60.18
2023-03-20T16:11:07.850Z,61.66
2023-03-20T16:12:51.006Z,63.27
2023-03-20T16:14:15.258Z,63.47
2023-03-20T16:15:57.829Z,61.33
2023-03-20T16:17:51.083Z,57.60
2023-03-20T16:19:24.537Z,56.27
2023-03-20T16:20:59.957Z,57.16
2023-03-20T16:22:43.008Z,58.43
2023-03-20T16:24:18.527Z,60.04
2023-03-20T16:25:54.247Z,61.45
2023-03-20T16:27:28.051Z,63.09
2023-03-20T16:29:14.241Z,64.03
2023-03-20T16:30:49.173Z,61.80
2023-03-20T16:32:30.094Z,58.69
2023-03-20T16:34:10.748Z,56.47
2023-03-20T16:35:32.680Z,57.13
2023-03-20T16:37:18.048Z,58.43
2023-03-20T16:39:09.659Z,60.31
2023-03-20T16:40:59.974Z,61.97
2023-03-20T16:42:55.057Z,63.86
2023-03-20T16:44:16.734Z,63.25
2023-03-20T16:45:38.833Z,61.21
2023-03-20T16:47:23.501Z,58.49
2023-03-20T16:49:12.216Z,56.65
2023-03-20T16:51:05.820Z,57.79
2023-03-20T16:52:39.578Z,59.63
2023-03-20T16:54:15.746Z,61.05
2023-03-20T16:55:49.589Z,63.01
2023-03-20T16:57:13.569Z,64.29
2023-03-20T16:58:59.027Z,63.05
2023-03-20T17:00:32.821Z,60.43
2023-03-20T17:01:55.029Z,57.77
2023-03-20T17:03:18.776Z,56.75
2023-03-20T17:04:41.232Z,57.50
2023-03-20T17:06:25.852Z,58.97
2023-03-20T17:08:06.728Z,61.01
2023-03-20T17:09:31.613Z,62.25
2023-03-20T17:11:04.752Z,64.14
2023-03-20T17:12:38.494Z,64.20
2023-03-20T17:14:04.827Z,61.78
2023-03-20T17:15:38.899Z,59.11
2023-03-20T17:17:14.445Z,57.16
2023-03-20T17:18:36.374Z,57.42
2023-03-20T17:20:05.586Z,58.87
2023-03-20T17:21:39.376Z,60.27
2023-03-20T17:23:16.217Z,61.96
2023-03-20T17:24:38.634Z,63.94
2023-03-20T17:26:02.543Z,64.32
2023-03-20T17:27:38.216Z,62.04
2023-03-20T17:29:02.111Z,59.80
2023-03-20T17:30:23.823Z,57.67
2023-03-20T17:31:57.476Z,57.13
2023-03-20T17:33:21.446Z,58.24
2023-03-20T17:34:46.223Z,59.85
2023-03-20T17:36:10.772Z,61.26
2023-03-20T17:37:32.806Z,62.71
2023-03-20T17:39:08.645Z,64.52
2023-03-20T17:40:42.841Z,63.24
2023-03-20T17:42:16.651Z,60.71
2023-03-20T17:43:51.621Z,58.13
2023-03-20T17:45:25.385Z,56.97
2023-03-20T17:47:19.928Z,57.96
2023-03-20T17:48:42.570Z,59.80
2023-03-20T17:50:06.648Z,61.31
2023-03-20T17:51:40.977Z,62.60
2023-03-20T17:53:02.820Z,64.52
2023-03-20T17:54:39.769Z,63.61
2023-03-20T17:56:13.571Z,61.31
2023-03-20T17:57:58.965Z,58.70
2023-03-20T17:59:40.557Z,56.84
2023-03-20T18:01:14.102Z,57.98
2023-03-20T18:02:46.537Z,59.53
2023-03-20T18:04:19.967Z,61.01
2023-03-20T18:05:51.849Z,62.64
2023-03-20T18:07:25.563Z,64.30
2023-03-20T18:09:01.369Z,63.00
2023-03-20T18:10:23.143Z,60.77
2023-03-20T18:11:45.050Z,58.60
2023-03-20T18:13:07.263Z,56.95
2023-03-20T18:14:29.362Z,57.23
2023-03-20T18:15:51.583Z,58.56
2023-03-20T18:17:16.119Z,60.10
2023-03-20T18:18:45.685Z,61.48
2023-03-20T18:20:19.467Z,63.01
2023-03-20T18:21:55.208Z,64.10
2023-03-20T18:23:40.936Z,62.05
2023-03-20T18:25:16.721Z,59.19
2023-03-20T18:26:52.935Z,56.95
2023-03-20T18:28:26.745Z,57.36
2023-03-20T18:30:16.948Z,58.85
2023-03-20T18:31:50.927Z,60.84
2023-03-20T18:33:37.730Z,62.42
2023-03-20T18:35:09.553Z,64.33
2023-03-20T18:36:43.911Z,63.63
2023-03-20T18:38:24.983Z,60.67
2023-03-20T18:40:01.013Z,57.85
2023-03-20T18:41:32.879Z,57.01
2023-03-20T18:43:15.195Z,57.90
2023-03-20T18:44:47.249Z,59.92
2023-03-20T18:46:11.060Z,61.43
2023-03-20T18:47:45.826Z,62.88
2023-03-20T18:49:17.325Z,64.39
2023-03-20T18:51:02.640Z,62.41
2023-03-20T18:52:43.608Z,59.56
2023-03-20T18:54:07.897Z,57.22
2023-03-20T18:55:31.878Z,57.13
2023-03-20T18:57:16.871Z,58.48
2023-03-20T18:58:39.568Z,60.19
2023-03-20T19:00:08.394Z,61.80
2023-03-20T19:01:51.074Z,63.57
2023-03-20T19:03:24.286Z,64.23
2023-03-20T19:04:54.049Z,61.76
2023-03-20T19:06:39.335Z,59.32
2023-03-20T19:08:03.689Z,57.09
2023-03-20T19:09:37.674Z,57.35
2023-03-20T19:11:15.208Z,59.07
2023-03-20T19:12:38.638Z,60.78
2023-03-20T19:14:19.306Z,62.35
2023-03-20T19:15:43.759Z,64.47
2023-03-20T19:17:17.259Z,64.30
2023-03-20T19:18:52.861Z,62.05
2023-03-20T19:20:26.292Z,59.87
2023-03-20T19:21:59.851Z,57.48
2023-03-20T19:23:35.881Z,57.62
2023-03-20T19:25:21.589Z,59.25
2023-03-20T19:26:56.884Z,61.19
2023-03-20T19:28:50.883Z,62.98
2023-03-20T19:30:31.721Z,64.57
2023-03-20T19:32:01.366Z,62.59
2023-03-20T19:33:25.375Z,60.35
2023-03-20T19:37:05.926Z,56.96
2023-03-20T19:38:39.642Z,58.81
2023-03-20T19:40:13.010Z,60.75
2023-03-20T19:41:37.890Z,62.27
2023-03-20T19:43:11.200Z,64.10
2023-03-20T19:44:33.386Z,64.07
2023-03-20T19:46:09.678Z,61.89
2023-03-20T19:47:44.709Z,59.56
2023-03-20T19:49:20.657Z,57.60
2023-03-20T19:50:43.805Z,57.66
2023-03-20T19:52:19.641Z,59.00
2023-03-20T19:53:41.957Z,60.64
2023-03-20T19:55:06.437Z,62.22
2023-03-20T19:56:40.560Z,64.72
2023-03-20T19:58:05.125Z,64.25
2023-03-20T19:59:43.651Z,61.91
2023-03-20T20:01:18.630Z,59.52
2023-03-20T20:02:52.470Z,57.14
2023-03-20T20:04:14.841Z,57.47
2023-03-20T20:05:49.841Z,58.77
2023-03-20T20:08:00.637Z,60.49
2023-03-20T20:08:56.966Z,62.64
2023-03-20T20:10:20.865Z,64.26
2023-03-20T20:12:06.490Z,63.54
2023-03-20T20:14:00.144Z,61.14
2023-03-20T20:15:24.558Z,58.08
2023-03-20T20:16:52.505Z,57.11
2023-03-20T20:18:24.397Z,58.30
2023-03-20T20:20:20.636Z,59.91
2023-03-20T20:22:20.057Z,61.84
2023-03-20T20:24:15.830Z,64.64
2023-03-20T20:25:40.131Z,64.18
2023-03-20T20:27:17.483Z,61.98
2023-03-20T20:28:51.277Z,59.31
2023-03-20T20:30:25.135Z,57.57
2023-03-20T20:32:11.216Z,57.81
2023-03-20T20:33:36.350Z,59.38
2023-03-20T20:35:45.512Z,61.24
2023-03-20T20:38:52.181Z,64.29
2023-03-20T20:40:23.533Z,62.34
2023-03-20T20:41:59.748Z,60.02
2023-03-20T20:44:11.547Z,57.51
2023-03-20T20:45:37.373Z,57.69
2023-03-20T20:46:59.291Z,59.36
2023-03-20T20:48:21.200Z,60.79
2023-03-20T20:49:54.544Z,62.79
2023-03-20T20:51:28.641Z,64.80
2023-03-20T20:53:01.745Z,63.78
2023-03-20T20:54:38.411Z,61.31
2023-03-20T20:56:02.451Z,59.23
2023-03-20T20:57:31.695Z,57.32
2023-03-20T20:59:12.300Z,57.79
2023-03-20T21:00:50.915Z,59.41
2023-03-20T21:02:20.701Z,61.27
2023-03-20T21:03:54.642Z,63.33
2023-03-20T21:05:23.407Z,64.75
2023-03-20T21:07:08.604Z,63.23
2023-03-20T21:08:41.964Z,60.36
2023-03-20T21:10:24.417Z,57.54